Aviation Digital Data Service (ADDS)

Output produced by TAFs form (0944 UTC 22 September 2017)
found at http://www.aviationweather.gov/adds/tafs/
 
KDEN 220853Z 18011KT 10SM CLR 18/M06 A2974 RMK AO2 SLP977 T01831056 50013
KDEN 220910Z 2209/2312 20014KT P6SM FEW220 
     FM221000 01012KT P6SM FEW220 
     FM221500 22012KT P6SM FEW220 
     FM221700 19014G22KT P6SM SCT220 
     FM222000 19018G30KT P6SM SCT100 BKN220 
     FM230300 22012G20KT P6SM SCT100 BKN220 
     FM230500 36010KT P6SM SCT100 BKN220